Time;durP1;ratioP1;P1;durP2;ratioP2;P2;SDS_P1;SDS_P2;PMS_P1;PMS_P2;Temp;Humidity;BMP_temperature;BMP_pressure;BME280_temperature;BME280_humidity;BME280_pressure;Samples;Min_cycle;Max_cycle;Signal;HPM_P1;HPM_P2
2022/11/17 00:00:33;;;;;;;16.15;10.13;;;;;;;0.56;100.00;99165.64;1710778;82;21097;-69
2022/11/17 00:03:01;;;;;;;19.50;11.15;;;;;;;0.62;100.00;99166.84;1740019;82;21053;-67
2022/11/17 00:05:27;;;;;;;19.48;12.35;;;;;;;0.62;100.00;99160.37;1740182;82;21077;-68
2022/11/17 00:07:55;;;;;;;17.55;12.20;;;;;;;0.59;100.00;99169.04;1740194;82;21045;-69
2022/11/17 00:10:21;;;;;;;19.57;11.83;;;;;;;0.55;100.00;99171.69;1740143;82;21157;-69
2022/11/17 00:15:34;;;;;;;19.25;11.35;;;;;;;0.65;100.00;99158.20;1740036;82;21066;-69
2022/11/17 00:23:48;;;;;;;22.00;13.88;;;;;;;0.60;100.00;99156.97;1740366;82;21814;-69
2022/11/17 00:26:21;;;;;;;19.30;12.85;;;;;;;0.65;100.00;99150.44;1740025;82;21541;-68
2022/11/17 00:28:54;;;;;;;21.73;13.43;;;;;;;0.63;100.00;99151.30;1739103;82;21545;-69
2022/11/17 00:34:11;;;;;;;21.75;13.50;;;;;;;0.58;100.00;99146.61;1740447;82;21072;-68
2022/11/17 00:36:44;;;;;;;22.42;14.87;;;;;;;0.46;100.00;99141.59;1740351;82;21248;-68
2022/11/17 00:39:11;;;;;;;24.27;15.10;;;;;;;0.50;100.00;99143.24;1740244;82;21137;-68
2022/11/17 00:41:40;;;;;;;22.15;14.20;;;;;;;0.45;100.00;99145.03;1740105;81;21049;-67
2022/11/17 00:44:06;;;;;;;22.35;14.95;;;;;;;0.43;100.00;99146.78;1739956;81;21073;-70
2022/11/17 00:46:34;;;;;;;21.65;14.05;;;;;;;0.40;100.00;99142.50;1739907;82;21150;-68
2022/11/17 00:49:01;;;;;;;24.30;14.80;;;;;;;0.42;100.00;99142.50;1739843;81;21949;-69
2022/11/17 00:51:28;;;;;;;24.32;14.78;;;;;;;0.43;100.00;99139.02;1739836;82;22263;-68
2022/11/17 00:53:55;;;;;;;21.25;12.82;;;;;;;0.41;100.00;99140.34;1739915;82;21053;-69
2022/11/17 00:56:24;;;;;;;21.93;14.68;;;;;;;0.63;100.00;99141.38;1739766;82;21129;-70
2022/11/17 00:58:51;;;;;;;24.50;14.60;;;;;;;0.55;100.00;99145.78;1741143;80;21109;-69
2022/11/17 01:01:18;;;;;;;22.70;14.43;;;;;;;0.54;100.00;99152.70;1750538;80;21232;-69
2022/11/17 01:03:44;;;;;;;26.35;15.60;;;;;;;0.53;100.00;99147.11;1742736;81;21086;-69
2022/11/17 01:06:17;;;;;;;21.00;13.72;;;;;;;0.46;100.00;99141.59;1789652;80;21091;-67
2022/11/17 01:08:43;;;;;;;23.70;16.30;;;;;;;0.39;100.00;99137.33;1789616;80;21663;-68
2022/11/17 01:11:14;;;;;;;23.85;15.18;;;;;;;0.36;100.00;99134.78;1789741;80;21852;-69
2022/11/17 01:13:43;;;;;;;23.92;14.53;;;;;;;0.38;100.00;99129.16;1789681;80;21095;-71
2022/11/17 01:16:15;;;;;;;28.10;15.43;;;;;;;0.36;100.00;99142.55;1789921;80;21600;-69
2022/11/17 01:18:45;;;;;;;25.08;15.90;;;;;;;0.31;100.00;99136.58;1789558;80;20998;-68
2022/11/17 01:21:21;;;;;;;25.57;16.17;;;;;;;0.41;100.00;99141.64;1789876;80;21137;-69
2022/11/17 01:23:51;;;;;;;26.30;17.35;;;;;;;0.33;100.00;99147.78;1789556;80;21045;-68
2022/11/17 01:26:28;;;;;;;25.43;15.93;;;;;;;0.26;100.00;99146.14;1789652;80;21301;-68
2022/11/17 01:28:54;;;;;;;25.80;15.50;;;;;;;0.31;100.00;99143.05;1789114;80;21466;-68
2022/11/17 01:31:29;;;;;;;30.92;18.48;;;;;;;0.29;100.00;99144.80;1789515;80;21024;-68
2022/11/17 01:33:56;;;;;;;24.25;15.48;;;;;;;0.29;100.00;99146.09;1789213;80;21560;-69
2022/11/17 01:36:29;;;;;;;26.95;17.27;;;;;;;0.41;100.00;99140.77;1790317;80;21457;-68
2022/11/17 01:38:56;;;;;;;30.97;18.48;;;;;;;0.25;100.00;99150.44;1782914;80;21145;-68
2022/11/17 01:41:26;;;;;;;28.15;16.80;;;;;;;0.23;100.00;99143.56;1758667;81;21038;-69
2022/11/17 01:43:59;;;;;;;28.73;19.10;;;;;;;0.30;100.00;99147.80;1758913;81;21038;-67
2022/11/17 01:46:37;;;;;;;29.07;18.32;;;;;;;0.29;100.00;99151.27;1758072;81;21060;-70
2022/11/17 01:49:14;;;;;;;28.27;17.73;;;;;;;0.47;100.00;99149.77;1758357;80;21092;-69
2022/11/17 01:51:46;;;;;;;27.55;17.85;;;;;;;0.63;100.00;99151.30;1758737;81;21107;-69
2022/11/17 01:54:16;;;;;;;29.27;17.17;;;;;;;0.34;100.00;99151.62;1758406;81;21028;-69
2022/11/17 01:56:44;;;;;;;28.70;17.57;;;;;;;0.31;100.00;99157.30;1758584;81;21065;-68
2022/11/17 01:59:36;;;;;;;24.67;16.55;;;;;;;0.27;100.00;99159.49;1753911;81;21100;-68
2022/11/17 02:02:02;;;;;;;25.00;16.00;;;;;;;0.33;100.00;99158.14;1765089;80;21283;-67
2022/11/17 02:04:48;;;;;;;28.40;16.67;;;;;;;0.31;100.00;99146.94;1778648;80;21237;-68
2022/11/17 02:07:26;;;;;;;27.35;16.93;;;;;;;0.17;100.00;99149.23;1778599;80;21174;-69
2022/11/17 02:09:53;;;;;;;26.27;16.12;;;;;;;0.09;100.00;99152.36;1778415;80;21100;-68
2022/11/17 02:12:21;;;;;;;25.43;16.48;;;;;;;0.07;100.00;99152.80;1778796;80;21062;-69
2022/11/17 02:14:49;;;;;;;26.00;16.48;;;;;;;0.10;100.00;99155.80;1778439;80;21074;-69
2022/11/17 02:17:17;;;;;;;23.60;14.55;;;;;;;0.07;100.00;99158.39;1778704;80;21087;-69
2022/11/17 02:19:45;;;;;;;25.85;16.57;;;;;;;0.01;100.00;99155.45;1778540;80;21054;-69
2022/11/17 02:22:59;;;;;;;24.63;15.63;;;;;;;0.09;100.00;99156.66;1778684;80;21104;-68
2022/11/17 02:25:38;;;;;;;25.02;15.85;;;;;;;0.06;100.00;99153.66;1778531;80;21046;-68
2022/11/17 02:28:28;;;;;;;28.00;17.02;;;;;;;-0.05;100.00;99161.97;1778094;80;21080;-68
2022/11/17 02:31:20;;;;;;;28.20;16.97;;;;;;;-0.06;100.00;99164.15;1778610;80;21045;-70
2022/11/17 02:33:58;;;;;;;26.48;15.70;;;;;;;-0.04;100.00;99158.52;1778827;80;21009;-67
2022/11/17 02:36:49;;;;;;;24.52;16.10;;;;;;;-0.03;100.00;99160.22;1778637;80;21073;-69
2022/11/17 02:39:26;;;;;;;28.77;17.20;;;;;;;-0.06;100.00;99148.17;1778648;80;21084;-68
2022/11/17 02:42:09;;;;;;;30.23;16.48;;;;;;;0.17;100.00;99149.67;1778714;80;20994;-70
2022/11/17 02:44:55;;;;;;;24.80;15.30;;;;;;;0.23;100.00;99153.92;1778460;80;21303;-68
2022/11/17 02:47:29;;;;;;;27.32;17.17;;;;;;;0.20;100.00;99154.37;1778658;80;21564;-69
2022/11/17 02:50:02;;;;;;;27.22;17.07;;;;;;;0.12;100.00;99163.97;1752514;80;21046;-69
2022/11/17 02:52:29;;;;;;;29.87;17.02;;;;;;;0.29;100.00;99168.11;1778634;80;21061;-70
2022/11/17 02:55:04;;;;;;;26.80;17.25;;;;;;;0.26;100.00;99166.86;1778798;80;21017;-67
2022/11/17 02:57:38;;;;;;;28.30;17.20;;;;;;;0.18;100.00;99168.21;1778695;80;21132;-69
2022/11/17 03:00:11;;;;;;;25.48;16.30;;;;;;;0.01;100.00;99161.92;1777374;80;21064;-68
2022/11/17 03:02:59;;;;;;;28.17;16.65;;;;;;;0.18;100.00;99160.03;1747571;82;21037;-69
2022/11/17 03:05:39;;;;;;;28.15;15.93;;;;;;;0.01;100.00;99151.56;1747839;82;21601;-68
2022/11/17 03:08:14;;;;;;;26.50;15.40;;;;;;;0.07;100.00;99151.52;1748058;82;21572;-70
2022/11/17 03:10:59;;;;;;;26.57;16.73;;;;;;;0.10;100.00;99151.47;1747746;82;21546;-69
2022/11/17 03:13:47;;;;;;;24.60;15.58;;;;;;;0.07;100.00;99161.87;1747785;82;21131;-69
2022/11/17 03:16:39;;;;;;;27.02;16.67;;;;;;;0.14;100.00;99151.02;1747773;82;21049;-68
2022/11/17 03:19:11;;;;;;;25.40;15.45;;;;;;;0.26;100.00;99156.50;1655439;86;21597;-68
2022/11/17 03:22:08;;;;;;;27.07;16.17;;;;;;;0.20;100.00;99158.70;1727029;82;21486;-67
2022/11/17 03:24:43;;;;;;;26.23;16.82;;;;;;;0.16;100.00;99164.36;1724855;82;21169;-67
2022/11/17 03:27:20;;;;;;;29.67;17.32;;;;;;;0.13;100.00;99160.94;1748035;82;21647;-68
2022/11/17 03:29:49;;;;;;;26.93;16.57;;;;;;;0.18;100.00;99161.33;1747845;82;22151;-68
2022/11/17 03:32:16;;;;;;;27.67;17.37;;;;;;;0.23;100.00;99164.28;1748183;82;21022;-68
2022/11/17 03:34:47;;;;;;;25.40;16.40;;;;;;;0.07;100.00;99163.16;1747986;82;21021;-67
2022/11/17 03:37:14;;;;;;;;;;;;;;;0.29;100.00;99170.25;1750526;82;21077;-68
2022/11/17 03:39:45;;;;;;;25.75;16.10;;;;;;;0.05;100.00;99166.20;1747717;82;20178;-68
2022/11/17 03:42:19;;;;;;;28.23;16.07;;;;;;;0.07;100.00;99169.63;1748007;82;28080;-69
2022/11/17 03:45:03;;;;;;;27.65;16.50;;;;;;;0.09;100.00;99160.53;1748019;82;21026;-68
2022/11/17 03:47:30;;;;;;;27.82;16.90;;;;;;;0.25;100.00;99159.94;1736925;82;21580;-68
2022/11/17 03:50:02;;;;;;;25.50;15.50;;;;;;;0.32;100.00;99156.41;1693992;82;21156;-68
2022/11/17 03:52:29;;;;;;;28.27;15.88;;;;;;;0.06;100.00;99156.25;1747804;82;21513;-69
2022/11/17 03:54:56;;;;;;;30.92;18.07;;;;;;;0.24;100.00;99153.06;1747666;82;21090;-67
2022/11/17 03:57:36;;;;;;;25.80;15.78;;;;;;;-0.02;100.00;99154.19;1747643;82;20998;-68
2022/11/17 04:00:08;;;;;;;28.85;17.55;;;;;;;-0.11;100.00;99155.58;1752427;81;21052;-69
2022/11/17 04:02:44;;;;;;;34.65;18.82;;;;;;;-0.01;100.00;99153.30;1720657;81;21066;-68
2022/11/17 04:05:12;;;;;;;30.08;17.27;;;;;;;0.05;100.00;99151.11;1712849;83;21042;-69
2022/11/17 04:07:41;;;;;;;28.10;16.65;;;;;;;-0.03;100.00;99140.81;1712868;83;21070;-68
2022/11/17 04:10:17;;;;;;;31.15;17.02;;;;;;;-0.07;100.00;99143.00;1696599;83;21066;-69
2022/11/17 04:18:18;;;;;;;27.95;16.95;;;;;;;-0.01;100.00;99141.66;1712869;83;21031;-68
2022/11/17 04:20:52;;;;;;;28.47;15.88;;;;;;;-0.03;100.00;99138.22;1712620;82;21107;-68
2022/11/17 04:23:18;;;;;;;32.17;16.27;;;;;;;-0.04;100.00;99142.99;1712907;83;21025;-69
2022/11/17 04:28:36;;;;;;;27.27;15.55;;;;;;;-0.01;100.00;99145.54;1713436;83;21189;-69
2022/11/17 04:31:21;;;;;;;31.47;16.80;;;;;;;0.06;100.00;99143.75;1714839;82;21010;-69
2022/11/17 04:33:55;;;;;;;30.68;16.35;;;;;;;-0.07;100.00;99141.70;1715998;83;21764;-67
2022/11/17 04:36:24;;;;;;;28.55;16.85;;;;;;;-0.16;100.00;99140.50;1715647;83;21051;-69
2022/11/17 04:38:54;;;;;;;29.47;17.67;;;;;;;-0.11;100.00;99140.05;1715334;83;21078;-68
2022/11/17 04:44:09;;;;;;;26.12;15.03;;;;;;;-0.04;100.00;99137.81;1715035;83;21661;-68
2022/11/17 04:46:38;;;;;;;33.45;17.35;;;;;;;-0.18;100.00;99139.66;1713579;83;21097;-68
2022/11/17 04:49:05;;;;;;;34.00;17.98;;;;;;;-0.19;100.00;99148.30;1715055;82;21023;-69
2022/11/17 04:51:34;;;;;;;36.38;18.82;;;;;;;-0.23;100.00;99141.88;1713142;83;21122;-68
2022/11/17 04:54:01;;;;;;;32.15;17.27;;;;;;;-0.20;100.00;99141.43;1713380;83;21727;-69
2022/11/17 04:56:29;;;;;;;37.42;18.35;;;;;;;-0.08;100.00;99146.48;1713313;83;21047;-68
2022/11/17 04:58:56;;;;;;;36.68;19.77;;;;;;;-0.19;100.00;99145.72;1713136;83;21014;-68
2022/11/17 05:01:24;;;;;;;41.20;21.33;;;;;;;-0.11;100.00;99135.72;1721120;82;21579;-70
2022/11/17 05:03:52;;;;;;;38.65;20.15;;;;;;;-0.19;100.00;99129.75;1742604;82;21024;-69
2022/11/17 05:06:30;;;;;;;39.58;20.60;;;;;;;-0.19;100.00;99130.19;1742993;82;21207;-69
2022/11/17 05:09:01;;;;;;;48.20;22.62;;;;;;;-0.19;100.00;99133.63;1742741;82;21111;-68
2022/11/17 05:14:17;;;;;;;47.23;23.00;;;;;;;-0.22;100.00;99150.05;1742507;82;21023;-68
2022/11/17 05:19:32;;;;;;;48.52;23.02;;;;;;;-0.49;100.00;99157.59;1713855;83;21769;-69
2022/11/17 05:21:58;;;;;;;45.70;21.77;;;;;;;-0.30;100.00;99159.62;1735704;82;21039;-68
2022/11/17 05:24:26;;;;;;;52.83;24.92;;;;;;;-0.25;100.00;99163.02;1735993;82;21102;-68
2022/11/17 05:26:53;;;;;;;51.80;24.23;;;;;;;-0.29;100.00;99171.67;1735742;82;22120;-69
2022/11/17 05:29:21;;;;;;;49.48;23.65;;;;;;;-0.35;100.00;99169.57;1736114;82;21108;-69
2022/11/17 05:31:47;;;;;;;49.67;24.72;;;;;;;-0.43;100.00;99167.06;1735944;82;21238;-69
2022/11/17 05:34:16;;;;;;;44.70;21.60;;;;;;;-0.39;100.00;99171.34;1735859;82;20991;-70
2022/11/17 05:36:42;;;;;;;46.50;24.40;;;;;;;-0.31;100.00;99171.27;1735911;81;21062;-69
2022/11/17 05:39:09;;;;;;;46.42;23.77;;;;;;;-0.27;100.00;99172.52;1735803;82;21081;-70
2022/11/17 05:41:36;;;;;;;45.78;21.50;;;;;;;-0.20;100.00;99172.48;1735925;82;21317;-69
2022/11/17 05:44:04;;;;;;;43.98;22.60;;;;;;;-0.31;100.00;99172.56;1735759;82;21666;-69
2022/11/17 05:46:30;;;;;;;49.75;24.70;;;;;;;-0.32;100.00;99173.00;1735701;82;21019;-69
2022/11/17 05:48:57;;;;;;;48.78;23.75;;;;;;;-0.39;100.00;99186.86;1735874;82;21081;-70
2022/11/17 05:51:23;;;;;;;54.10;25.50;;;;;;;-0.43;100.00;99191.63;1736260;82;21114;-69
2022/11/17 05:53:50;;;;;;;45.12;23.02;;;;;;;-0.37;100.00;99187.68;1736109;82;21106;-68
2022/11/17 05:56:34;;;;;;;51.15;24.07;;;;;;;-0.40;100.00;99186.86;1736147;82;21380;-68
2022/11/17 05:59:35;;;;;;;46.20;22.30;;;;;;;-0.26;100.00;99197.52;1716674;82;21097;-69
2022/11/17 06:02:07;;;;;;;45.75;22.32;;;;;;;-0.24;100.00;99206.56;1670424;84;21083;-70
2022/11/17 06:04:34;;;;;;;44.65;23.02;;;;;;;-0.20;100.00;99210.85;1730444;82;21087;-69
2022/11/17 06:07:01;;;;;;;45.75;22.73;;;;;;;-0.24;100.00;99220.80;1741537;82;21060;-68
2022/11/17 06:09:31;;;;;;;47.45;22.82;;;;;;;-0.31;100.00;99219.98;1741513;82;21330;-70
2022/11/17 06:11:57;;;;;;;46.28;22.70;;;;;;;-0.28;100.00;99221.69;1741681;82;21064;-69
2022/11/17 06:14:24;;;;;;;47.93;23.30;;;;;;;-0.50;100.00;99221.00;1741596;82;21051;-70
2022/11/17 06:16:55;;;;;;;43.90;23.27;;;;;;;-0.51;100.00;99211.06;1741803;82;21100;-71
2022/11/17 06:19:27;;;;;;;43.23;22.45;;;;;;;-0.52;100.00;99208.52;1741690;82;21095;-71
2022/11/17 06:21:54;;;;;;;43.92;21.25;;;;;;;-0.40;100.00;99214.88;1741711;82;21141;-70
2022/11/17 06:24:21;;;;;;;44.35;22.98;;;;;;;-0.34;100.00;99203.20;1741610;82;21040;-70
2022/11/17 06:26:48;;;;;;;47.60;24.32;;;;;;;-0.39;100.00;99201.09;1741959;82;21044;-69
2022/11/17 06:29:14;;;;;;;52.23;24.63;;;;;;;-0.34;100.00;99199.32;1741974;82;21080;-70
2022/11/17 06:31:41;;;;;;;46.85;23.50;;;;;;;-0.41;100.00;99191.19;1741728;82;21064;-70
2022/11/17 06:34:07;;;;;;;45.43;23.65;;;;;;;-0.42;100.00;99181.69;1741848;82;21071;-68
2022/11/17 06:36:34;;;;;;;48.05;23.47;;;;;;;-0.40;100.00;99177.81;1741590;82;21121;-69
2022/11/17 06:39:02;;;;;;;46.30;22.32;;;;;;;-0.39;100.00;99167.46;1741549;82;21099;-70
2022/11/17 06:41:29;;;;;;;42.17;24.35;;;;;;;-0.45;100.00;99158.00;1741605;82;21549;-70
2022/11/17 06:43:56;;;;;;;50.08;23.77;;;;;;;-0.49;100.00;99150.28;1741594;82;21565;-70
2022/11/17 06:46:23;;;;;;;48.08;23.25;;;;;;;-0.48;100.00;99149.43;1741674;82;21262;-69
2022/11/17 06:48:53;;;;;;;40.65;22.25;;;;;;;-0.34;100.00;99143.70;1741394;81;21120;-69
2022/11/17 06:51:20;;;;;;;46.08;22.07;;;;;;;-0.35;100.00;99151.02;1741532;82;21041;-68
2022/11/17 06:53:47;;;;;;;39.90;21.23;;;;;;;-0.34;100.00;99165.69;1741426;82;21068;-68
2022/11/17 06:56:16;;;;;;;43.65;22.05;;;;;;;-0.31;100.00;99159.19;1741799;82;21048;-69
2022/11/17 06:58:44;;;;;;;39.05;20.48;;;;;;;-0.22;100.00;99160.40;1741757;82;21299;-68
2022/11/17 07:01:13;;;;;;;41.65;22.48;;;;;;;-0.25;100.00;99160.44;1728181;82;21108;-68
2022/11/17 07:03:41;;;;;;;47.45;24.05;;;;;;;-0.31;100.00;99154.01;1712119;82;21576;-69
2022/11/17 07:06:09;;;;;;;37.40;21.23;;;;;;;-0.39;100.00;99155.82;1712006;83;21095;-69
2022/11/17 07:08:36;;;;;;;38.10;21.10;;;;;;;-0.40;100.00;99155.37;1711972;83;21068;-68
2022/11/17 07:11:13;;;;;;;42.20;21.93;;;;;;;-0.29;100.00;99152.27;1712043;82;21044;-68
2022/11/17 07:13:42;;;;;;;36.10;20.52;;;;;;;-0.30;100.00;99159.62;1712109;82;21548;-69
2022/11/17 10:04:16;;;;;;;39.70;20.77;;;;;;;-1.28;100.00;99107.31;1878365;74;22556;-93
2022/11/17 10:06:45;;;;;;;47.58;23.18;;;;;;;-1.33;100.00;99118.96;1846351;77;21628;-91
2022/11/17 10:09:26;;;;;;;43.48;21.52;;;;;;;-1.30;100.00;99109.05;1859286;77;21222;-91
2022/11/17 10:11:55;;;;;;;46.60;23.70;;;;;;;-1.23;100.00;99105.55;1858711;77;20956;-91
2022/11/17 10:14:22;;;;;;;42.27;21.60;;;;;;;-1.13;100.00;99105.94;1859648;77;21015;-91
2022/11/17 10:16:55;;;;;;;39.27;21.93;;;;;;;-1.01;100.00;99108.00;1858640;77;21040;-92
2022/11/17 10:19:29;;;;;;;69.65;43.98;;;;;;;-0.92;100.00;99097.59;1858855;77;21044;-91
2022/11/17 10:22:07;;;;;;;51.60;31.02;;;;;;;-0.81;100.00;99091.91;1858948;77;21182;-90
2022/11/17 10:24:42;;;;;;;45.05;23.75;;;;;;;-0.74;100.00;99096.16;1858278;77;21019;-90
2022/11/17 10:27:20;;;;;;;41.42;21.37;;;;;;;-0.72;100.00;99081.50;1859896;77;21050;-90
2022/11/17 10:30:15;;;;;;;47.08;23.05;;;;;;;-0.73;100.00;99079.80;1859096;77;21009;-88
2022/11/17 10:32:51;;;;;;;44.00;21.05;;;;;;;-0.73;100.00;99079.80;1859703;77;20974;-90
2022/11/17 10:35:24;;;;;;;37.38;19.95;;;;;;;-0.66;100.00;99078.87;1859058;77;21083;-92
2022/11/17 10:38:01;;;;;;;36.03;19.85;;;;;;;-0.63;100.00;99081.86;1859136;77;21509;-91
2022/11/17 10:40:30;;;;;;;38.92;21.00;;;;;;;-0.55;100.00;99077.91;1859131;77;21044;-91
2022/11/17 10:43:15;;;;;;;38.80;20.80;;;;;;;-0.52;100.00;99068.41;1859833;77;21025;-91
2022/11/17 10:45:55;;;;;;;40.17;20.27;;;;;;;-0.50;100.00;99072.28;1859946;77;21458;-90
2022/11/17 10:48:36;;;;;;;31.85;17.35;;;;;;;-0.47;100.00;99076.13;1858263;76;21892;-91
2022/11/17 10:51:20;;;;;;;41.05;20.27;;;;;;;-0.45;100.00;99082.14;1858710;77;21536;-92
2022/11/17 10:54:18;;;;;;;33.98;18.50;;;;;;;-0.39;100.00;99084.68;1859263;77;21296;-91
2022/11/17 10:56:51;;;;;;;37.65;20.92;;;;;;;-0.39;100.00;99084.68;1858475;77;21260;-91
2022/11/17 10:59:44;;;;;;;39.65;20.97;;;;;;;-0.36;100.00;99085.94;1816745;79;21050;-90
2022/11/17 11:02:22;;;;;;;35.35;19.42;;;;;;;-0.31;100.00;99081.56;1769316;80;21430;-91
2022/11/17 11:04:49;;;;;;;41.98;21.73;;;;;;;-0.28;100.00;99072.47;1783217;80;21046;-92
2022/11/17 11:07:21;;;;;;;38.33;19.92;;;;;;;-0.28;100.00;99062.13;1709454;80;21066;-91
2022/11/17 11:10:11;;;;;;;38.42;19.52;;;;;;;-0.25;100.00;99065.14;1782630;80;21085;-92
2022/11/17 11:13:02;;;;;;;;;;;;;;;-0.24;100.00;99066.40;1725220;80;21057;-91
2022/11/17 11:15:33;;;;;;;30.65;18.73;;;;;;;-0.26;100.00;99059.08;1782037;80;21172;-92
2022/11/17 11:18:00;;;;;;;37.42;20.35;;;;;;;-0.20;100.00;99068.97;1783176;80;21064;-91
2022/11/17 11:20:54;;;;;;;34.78;18.77;;;;;;;-0.23;100.00;99068.12;1782114;80;21374;-91
2022/11/17 11:23:51;;;;;;;39.10;21.17;;;;;;;-0.20;100.00;99068.97;1782156;80;21015;-91
2022/11/17 11:26:41;;;;;;;32.10;17.82;;;;;;;-0.17;100.00;99071.52;1721481;83;21099;-91
2022/11/17 11:29:34;;;;;;;31.50;17.05;;;;;;;-0.18;100.00;99074.97;1730756;81;21117;-91
2022/11/17 11:32:29;;;;;;;32.42;17.95;;;;;;;-0.23;100.00;99072.02;1781401;80;21057;-91
2022/11/17 11:35:33;;;;;;;32.70;18.00;;;;;;;-0.22;100.00;99077.59;1766156;81;21072;-90
2022/11/17 11:38:44;;;;;;;33.30;18.80;;;;;;;-0.12;100.00;99070.58;1783293;80;21097;-91
2022/11/17 11:41:25;;;;;;;31.75;18.32;;;;;;;-0.13;100.00;99070.63;1781993;80;21066;-92
2022/11/17 11:44:12;;;;;;;32.53;18.20;;;;;;;-0.09;100.00;99058.05;1781652;80;21223;-92
2022/11/17 11:47:20;;;;;;;35.73;19.00;;;;;;;-0.07;100.00;99058.89;1782747;80;21733;-92
2022/11/17 11:50:04;;;;;;;35.10;18.37;;;;;;;-0.07;100.00;99052.41;1782340;80;21042;-92
2022/11/17 11:52:34;;;;;;;31.10;18.15;;;;;;;0.07;100.00;99050.96;1782340;80;21061;-91
2022/11/17 11:55:21;;;;;;;34.80;18.87;;;;;;;0.12;100.00;99055.23;1782801;80;21066;-91
2022/11/17 11:58:18;;;;;;;37.05;18.95;;;;;;;0.06;100.00;99058.32;1762941;78;22300;-89
2022/11/17 12:00:45;;;;;;;39.70;18.90;;;;;;;-0.09;100.00;99047.28;1782744;80;20995;-90
2022/11/17 12:03:37;;;;;;;36.85;19.52;;;;;;;0.01;100.00;99068.73;1783274;80;21074;-91
2022/11/17 12:06:40;;;;;;;34.48;19.62;;;;;;;-0.01;100.00;99065.30;1783600;80;21113;-91
2022/11/17 12:09:43;;;;;;;38.70;19.35;;;;;;;-0.10;100.00;99070.58;1785098;80;20956;-91
2022/11/17 12:12:18;;;;;;;31.30;17.92;;;;;;;-0.11;100.00;99064.99;1784059;80;21089;-92
2022/11/17 12:15:19;;;;;;;36.80;19.75;;;;;;;-0.16;100.00;99061.58;1784421;80;21067;-91
2022/11/17 12:18:11;;;;;;;39.20;19.05;;;;;;;-0.08;100.00;99060.62;1783816;80;21054;-92
2022/11/17 12:20:52;;;;;;;35.47;19.87;;;;;;;-0.11;100.00;99053.35;1785397;80;21094;-90
2022/11/17 12:24:05;;;;;;;35.50;19.07;;;;;;;-0.27;100.00;99048.33;1784592;80;21594;-91
2022/11/17 12:26:33;;;;;;;37.08;18.90;;;;;;;-0.24;100.00;99045.70;1784439;80;21915;-89
2022/11/17 12:29:23;;;;;;;31.82;17.35;;;;;;;-0.15;100.00;99033.55;1784681;80;21410;-91
2022/11/17 12:31:54;;;;;;;33.40;18.55;;;;;;;-0.15;100.00;99030.96;1783959;80;20975;-91
2022/11/17 12:34:29;;;;;;;36.53;20.43;;;;;;;-0.25;100.00;99024.59;1784112;80;21042;-91
2022/11/17 12:37:17;;;;;;;36.93;18.17;;;;;;;-0.30;100.00;99028.97;1783839;80;21004;-91
2022/11/17 12:40:11;;;;;;;38.25;19.73;;;;;;;-0.27;100.00;99026.78;1776273;80;21134;-90
2022/11/17 12:42:35;;;;;;;34.92;19.45;;;;;;;-0.32;100.00;99035.89;1782762;80;22362;-92
2022/11/17 12:45:11;;;;;;;39.70;20.25;;;;;;;-0.43;100.00;99039.02;1783985;80;21023;-91
2022/11/17 12:47:42;;;;;;;35.30;18.12;;;;;;;-0.48;100.00;99042.94;1783667;80;21077;-91
2022/11/17 12:50:26;;;;;;;42.70;20.60;;;;;;;-0.45;100.00;99040.76;1784029;80;21110;-91
2022/11/17 12:53:17;;;;;;;37.78;19.65;;;;;;;-0.33;100.00;99050.97;1783666;80;21806;-91
2022/11/17 12:56:17;;;;;;;35.08;19.32;;;;;;;-0.20;100.00;99041.80;1784785;80;21077;-92
2022/11/17 12:58:55;;;;;;;36.40;20.37;;;;;;;-0.24;100.00;99034.50;1783216;80;21008;-92
2022/11/17 13:01:41;;;;;;;35.98;19.37;;;;;;;-0.30;100.00;99032.84;1794066;78;21505;-92
2022/11/17 13:04:35;;;;;;;36.93;20.40;;;;;;;-0.30;100.00;99036.73;1820471;78;21073;-91
2022/11/17 13:07:09;;;;;;;39.03;19.70;;;;;;;-0.29;100.00;99033.25;1821524;78;21497;-89
2022/11/17 13:09:36;;;;;;;34.50;18.02;;;;;;;-0.29;100.00;99036.28;1820834;78;21094;-91
2022/11/17 13:12:06;;;;;;;34.58;19.10;;;;;;;-0.33;100.00;99036.74;1822497;78;21046;-91
2022/11/17 13:14:37;;;;;;;42.98;22.00;;;;;;;-0.38;100.00;99030.77;1822436;78;21116;-92
2022/11/17 13:17:09;;;;;;;37.40;19.37;;;;;;;-0.29;100.00;99027.23;1819577;78;21088;-91
2022/11/17 13:19:38;;;;;;;40.03;20.60;;;;;;;-0.36;100.00;99027.73;1822739;78;21052;-90
2022/11/17 13:22:13;;;;;;;45.38;21.25;;;;;;;-0.39;100.00;99021.72;1822530;78;21021;-91
2022/11/17 13:24:45;;;;;;;39.10;19.90;;;;;;;-0.49;100.00;99024.84;1822748;78;21045;-91
2022/11/17 13:27:27;;;;;;;36.80;19.23;;;;;;;-0.43;100.00;99018.32;1823561;78;21065;-89
2022/11/17 13:30:21;;;;;;;32.55;18.50;;;;;;;-0.48;100.00;99013.64;1822579;78;21096;-90
2022/11/17 13:32:47;;;;;;;40.40;20.27;;;;;;;-0.52;100.00;99013.25;1824157;76;21143;-89
2022/11/17 13:35:24;;;;;;;34.15;19.92;;;;;;;-0.54;100.00;99002.05;1822122;78;21105;-92
2022/11/17 13:38:22;;;;;;;42.35;21.33;;;;;;;-0.62;100.00;99005.14;1820636;78;21069;-91
2022/11/17 13:40:51;;;;;;;36.95;19.50;;;;;;;-0.60;100.00;99000.37;1822060;78;21049;-91
2022/11/17 13:43:20;;;;;;;32.88;19.40;;;;;;;-0.69;100.00;99001.75;1822747;78;21044;-90
2022/11/17 13:45:50;;;;;;;38.85;19.20;;;;;;;-0.72;100.00;98996.18;1822145;78;21084;-89
2022/11/17 13:48:37;;;;;;;32.98;18.37;;;;;;;-0.68;100.00;98990.11;1820922;78;21005;-92
2022/11/17 13:51:31;;;;;;;37.20;18.67;;;;;;;-0.73;100.00;98993.63;1821903;78;21645;-92
2022/11/17 13:54:12;;;;;;;43.17;20.17;;;;;;;-0.67;100.00;98997.02;1823183;77;21041;-91
2022/11/17 13:56:50;;;;;;;40.35;19.07;;;;;;;-0.71;100.00;98997.91;1823585;78;21039;-90
2022/11/17 13:59:32;;;;;;;36.17;18.85;;;;;;;-0.74;100.00;98995.33;1822469;78;21295;-90
2022/11/17 14:02:19;;;;;;;35.33;19.30;;;;;;;-0.75;100.00;98998.80;1823776;78;21043;-91
2022/11/17 14:05:15;;;;;;;37.48;19.73;;;;;;;-0.72;100.00;98997.91;1822359;78;20974;-90
2022/11/17 14:07:45;;;;;;;39.23;18.67;;;;;;;-0.73;100.00;98997.06;1824520;78;21072;-91
2022/11/17 14:10:33;;;;;;;35.98;17.32;;;;;;;-0.69;100.00;98983.24;1823070;78;21073;-90
2022/11/17 14:13:05;;;;;;;36.40;17.85;;;;;;;-0.77;100.00;98991.94;1822232;78;21136;-91
2022/11/17 14:15:37;;;;;;;40.65;19.12;;;;;;;-0.69;100.00;99000.05;1822894;78;21080;-91
2022/11/17 14:18:16;;;;;;;32.28;18.05;;;;;;;-0.75;100.00;98996.22;1822040;78;20951;-90
2022/11/17 14:20:42;;;;;;;37.45;18.32;;;;;;;-0.79;100.00;99000.98;1820234;78;21053;-91
2022/11/17 14:23:16;;;;;;;34.40;18.27;;;;;;;-0.75;100.00;99001.39;1822301;78;21347;-91
2022/11/17 14:25:45;;;;;;;40.80;19.50;;;;;;;-0.78;100.00;99006.59;1822620;78;21117;-90
2022/11/17 14:28:17;;;;;;;37.67;16.40;;;;;;;-0.79;100.00;99011.33;1822668;78;21037;-91
2022/11/17 14:30:50;;;;;;;35.63;18.35;;;;;;;-0.66;100.00;99014.23;1821725;78;21084;-91
2022/11/17 14:33:18;;;;;;;39.70;17.95;;;;;;;-0.76;100.00;99007.44;1822272;78;21069;-92
2022/11/17 14:35:49;;;;;;;36.08;17.98;;;;;;;-0.80;100.00;99000.58;1822292;78;21077;-91
2022/11/17 14:38:19;;;;;;;50.60;22.73;;;;;;;-0.72;100.00;99010.40;1822730;78;21228;-91
2022/11/17 14:40:45;;;;;;;34.15;17.80;;;;;;;-0.73;100.00;99012.58;1822988;78;21041;-92
2022/11/17 14:43:12;;;;;;;70.57;36.42;;;;;;;-0.79;100.00;99007.45;1822154;78;21055;-91
2022/11/17 18:23:36;;;;;;;30.60;15.47;;;;;;;-2.95;100.00;98970.27;1822267;76;81511;-67
2022/11/17 18:26:16;;;;;;;36.23;16.57;;;;;;;-2.98;100.00;98965.57;1689026;84;21085;-69
2022/11/17 18:28:57;;;;;;;30.95;15.75;;;;;;;-2.92;100.00;98969.44;1688260;84;21416;-69
2022/11/17 18:31:26;;;;;;;32.30;16.75;;;;;;;-2.79;100.00;98965.95;1687922;84;21062;-69
2022/11/17 18:34:01;;;;;;;32.23;15.65;;;;;;;-2.67;100.00;98970.66;1688125;85;21010;-69
2022/11/17 18:36:28;;;;;;;28.00;14.23;;;;;;;-2.56;100.00;98979.23;1687978;84;21723;-72
2022/11/17 18:38:57;;;;;;;29.20;14.83;;;;;;;-2.45;100.00;98968.90;1687925;84;21121;-69
2022/11/17 18:41:24;;;;;;;26.12;13.95;;;;;;;-2.44;100.00;98960.28;1688045;85;21176;-69